• Join FlightAware (Why Join?)
  • Login
  • US Flag 
12:28PM EDT


 

Airport Tracker/Info


-or-


 

Live Flight TrackerFlight Track Log ✈ SWA1729 ✈ 19-Apr-2013 ✈ KHOU - KELP

Flight Track Log - Related Links

Times and Time Zones

All times are in EDT time to prevent confusion due to time zone crossing. See the SWA1729 flight status page for this flight to view local times or setup timezone preferences in your user account.

Time Position Orientation Groundspeed Altitude Reporting Facility
EDT Latitude Longitude Course Direction KTS MPH feet Rate Location/Type
10:13PM 29.7069 -95.3597 312° West 206 237 5,300  Level Houston Center
10:14PM 29.7322 -95.4289 293° West 272 313 7,800 2,580 Climbing Houston Center
10:15PM 29.7547 -95.5119 287° West 274 315 10,800 2,700 Climbing Houston Center
10:16PM 29.7775 -95.5983 287° West 280 322 13,600 2,460 Climbing Houston Center
10:17PM 29.8039 -95.6964 287° West 314 361 15,900 2,400 Climbing Houston Center
10:18PM 29.8369 -95.8267 286° West 355 409 18,600 2,580 Climbing Houston Center
10:19PM 29.8664 -95.9406 287° West 369 425 21,200 2,400 Climbing Houston Center
10:20PM 29.8939 -96.0419 287° West 374 430 23,500 2,340 Climbing Houston Center
10:21PM 29.9225 -96.1558 286° West 373 429 26,000 2,580 Climbing Houston Center
10:22PM 29.9414 -96.2922 279° West 363 418 28,800 2,640 Climbing Houston Center
10:23PM 29.9469 -96.4003 273° West 345 397 31,400 1,860 Climbing Houston Center
10:24PM 29.9525 -96.5069 273° West 336 387 32,600 1,200 Climbing Houston Center
10:25PM 29.9678 -96.6169 279° West 349 402 33,900 1,500 Climbing Houston Center
10:26PM 29.9889 -96.7242 283° West 347 399 35,700 1,020 Climbing Houston Center
10:27PM 30.0111 -96.8278 284° West 338 389 36,000 120 Climbing Houston Center
10:28PM 30.0333 -96.9356 283° West 346 398 36,000  Level Houston Center
10:29PM 30.0564 -97.0419 284° West 345 397 36,000  Level Houston Center
10:30PM 30.0781 -97.1506 283° West 348 400 36,000  Level Houston Center
10:31PM 30.1042 -97.2750 284° West 350 403 36,000  Level Houston Center
10:32PM 30.1275 -97.3878 283° West 357 411 36,000  Level Houston Center
10:33PM 30.1500 -97.5006 283° West 356 410 36,000  Level Houston Center
10:34PM 30.1728 -97.6136 283° West 358 412 36,000  Level Houston Center
10:35PM 30.1950 -97.7278 283° West 359 413 36,000  Level Houston Center
10:36PM 30.2183 -97.8422 283° West 362 417 36,000  Level Houston Center
10:37PM 30.2428 -97.9658 283° West 358 412 36,000  Level Houston Center
10:38PM 30.2650 -98.0781 283° West 359 413 36,000  Level Houston Center
10:39PM 30.2897 -98.1914 284° West 363 418 36,000  Level Houston Center
10:40PM 30.3125 -98.2994 284° West 362 417 36,000  Level Houston Center
10:41PM 30.3372 -98.4144 284° West 365 420 36,000  Level Houston Center
10:42PM 30.3608 -98.5283 284° West 360 414 36,000  Level Houston Center
10:43PM 30.3836 -98.6442 283° West 365 420 36,000  Level Houston Center
10:44PM 30.4081 -98.7597 284° West 366 421 36,000  Level Houston Center
10:45PM 30.4342 -98.8767 285° West 371 427 36,000  Level Houston Center
10:46PM 30.4572 -98.9933 283° West 368 423 36,000  Level Houston Center
10:47PM 30.4817 -99.1108 284° West 370 426 36,000  Level Houston Center
10:48PM 30.5064 -99.2261 284° West 372 428 36,000  Level Houston Center
10:49PM 30.5297 -99.3428 283° West 373 429 36,000  Level Houston Center
10:50PM 30.5533 -99.4592 283° West 374 430 36,000  Level Houston Center
10:51PM 30.5817 -99.5997 283° West 373 429 36,000  Level Houston Center
10:52PM 30.6050 -99.7169 283° West 375 432 36,000  Level Houston Center
10:53PM 30.6267 -99.8319 282° West 369 425 36,000  Level Houston Center
10:54PM 30.6503 -99.9506 283° West 377 434 36,000  Level Houston Center
10:55PM 30.6747 -100.0706 283° West 380 437 36,000  Level Houston Center
10:56PM 30.6975 -100.1897 283° West 382 440 36,000  Level Houston Center
10:57PM 30.7211 -100.3086 283° West 382 440 36,000  Level Houston Center
10:58PM 30.7442 -100.4275 283° West 379 436 36,000  Level Houston Center
11:00PM 30.7661 -100.5489 282° West 385 443 36,000  Level Houston Center
11:01PM 30.7903 -100.6689 283° West 385 443 36,000  Level Houston Center
11:02PM 30.8169 -100.8150 282° West 387 445 36,000  Level Houston Center
11:03PM 30.8406 -100.9358 283° West 387 445 36,000  Level Houston Center
11:04PM 30.8639 -101.0578 283° West 387 445 36,000  Level Houston Center
11:05PM 30.8869 -101.1797 282° West 387 445 36,000  Level Houston Center
11:06PM 30.9114 -101.3003 283° West 384 442 36,000  Level Houston Center
11:07PM 30.9317 -101.4178 281° West 389 448 36,000  Level Houston Center
11:07PM 30.9403 -101.4667 282° West 391 450 36,000  Level Albuquerque Center
11:08PM 30.9639 -101.5894 283° West 390 449 36,000  Level Albuquerque Center
11:09PM 30.9853 -101.7122 282° West 389 448 36,000  Level Albuquerque Center
11:10PM 31.0072 -101.8347 282° West 387 445 36,000  Level Albuquerque Center
11:11PM 31.0300 -101.9664 281° West 396 456 36,000  Level Albuquerque Center
11:12PM 31.0514 -102.0883 282° West 388 447 36,000  Level Albuquerque Center
11:13PM 31.0733 -102.2092 282° West 382 440 36,000  Level Albuquerque Center
11:14PM 31.1000 -102.3533 282° West 380 437 36,000  Level Albuquerque Center
11:15PM 31.1211 -102.4736 282° West 379 436 36,000  Level Albuquerque Center
11:16PM 31.1406 -102.5906 281° West 372 428 36,000  Level Albuquerque Center
11:17PM 31.1614 -102.7089 282° West 370 426 36,000  Level Albuquerque Center
11:18PM 31.1825 -102.8283 282° West 372 428 36,000  Level Albuquerque Center
11:19PM 31.2036 -102.9494 282° West 376 433 36,000  Level Albuquerque Center
11:20PM 31.2239 -103.0697 281° West 378 435 36,000  Level Albuquerque Center
11:21PM 31.2436 -103.1914 281° West 380 437 36,000  Level Albuquerque Center
11:22PM 31.2642 -103.3122 281° West 380 437 36,000  Level Albuquerque Center
11:23PM 31.2881 -103.4567 281° West 379 436 36,000  Level Albuquerque Center
11:24PM 31.3094 -103.5808 281° West 385 443 36,000  Level Albuquerque Center
11:25PM 31.3289 -103.7044 280° West 388 447 36,000  Level Albuquerque Center
11:26PM 31.3492 -103.8181 282° West 389 448 36,000  Level Albuquerque Center
11:27PM 31.3689 -103.9414 281° West 389 448 36,000  Level Albuquerque Center
11:28PM 31.3878 -104.0622 280° West 383 441 36,000  Level Albuquerque Center
11:29PM 31.4139 -104.2081 282° West 383 441 36,000  Level Albuquerque Center
11:30PM 31.4325 -104.3256 281° West 374 430 36,000  Level Albuquerque Center
11:32PM 31.4525 -104.4453 281° West 375 432 36,000  Level Albuquerque Center
11:33PM 31.4650 -104.5661 277° West 376 433 36,000 -360 Level Albuquerque Center
11:34PM 31.4778 -104.6869 277° West 376 433 35,300 -1,380 Descending Albuquerque Center
11:35PM 31.4906 -104.8106 277° West 382 440 33,200 -2,400 Descending Albuquerque Center
11:36PM 31.5039 -104.9392 277° West 396 456 30,500 -2,580 Descending Albuquerque Center
11:37PM 31.5153 -105.0597 276° West 382 440 28,000 -2,640 Descending Albuquerque Center
11:38PM 31.5300 -105.2008 277° West 369 425 25,100 -2,700 Descending Albuquerque Center
11:39PM 31.5428 -105.3222 277° West 375 432 22,600 -2,520 Descending Albuquerque Center
11:40PM 31.5517 -105.4322 275° West 388 447 20,400 -2,640 Descending Albuquerque Center
11:40PM 31.5561 -105.4883 275° West 379 436 19,300 -2,280 Descending Albuquerque Center
11:41PM 31.5650 -105.5656 278° West 365 420 17,700 -2,220 Descending Albuquerque Center
11:42PM 31.5767 -105.6769 277° West 349 402 15,300 -2,280 Descending Albuquerque Center
11:43PM 31.5861 -105.7861 276° West 339 390 13,100 -2,220 Descending Albuquerque Center
11:44PM 31.6281 -105.8797 298° West 324 373 10,900 -1,620 Descending Albuquerque Center
11:45PM 31.6719 -105.9678 300° West 314 361 9,900 -1,260 Descending Albuquerque Center
11:46PM 31.7158 -106.0572 300° West 263 303 8,400 -1,440 Descending Albuquerque Center
11:46PM 31.7258 -106.0772 300° West 251 289 8,100 -1,200 Descending Albuquerque Center
11:47PM 31.7536 -106.1269 303° West 254 292 7,200 -1,140 Descending Albuquerque Center
11:47PM 31.7642 -106.1475 301° West 250 288 7,000 -420 Descending Albuquerque Center
11:48PM 31.7789 -106.1956 290° West 222 255 6,800 -420 Descending Albuquerque Center
11:48PM 31.7831 -106.2153 284° West 208 239 6,600 -900 Descending Albuquerque Center
11:49PM 31.7903 -106.2553 282° West 185 213 5,900 -1,020 Descending Albuquerque Center
11:49PM 31.7928 -106.2678 283° West 149 171 5,600 -1,020 Descending Albuquerque Center
11:50PM 31.7981 -106.2994 281° West 143 165 4,900 -780 Descending Albuquerque Center
11:51PM 31.8000 -106.3419 273° West 132 152 4,200 -720 Descending Albuquerque Center
11:53PM 31.8000 -106.3667 270° West  Level FlightAware Approximate
12:00AM 31.8072 -106.3764 270° West  Level Estimated
12:01AM 31.8072 -106.3764 270° West  Level Estimated
12:02AM 31.8072 -106.3764 270° West  Level Estimated
12:03AM 31.8072 -106.3764 270° West  Level Estimated